sensor_id;sensor_type;location;lat;lon;timestamp;temperature;humidity
3850;DHT22;1940;51.052;13.678;2024-02-16T00:00:05;9.20;95.20
3850;DHT22;1940;51.052;13.678;2024-02-16T00:02:31;9.20;95.20
3850;DHT22;1940;51.052;13.678;2024-02-16T00:04:58;9.20;95.20
3850;DHT22;1940;51.052;13.678;2024-02-16T00:07:24;9.20;95.20
3850;DHT22;1940;51.052;13.678;2024-02-16T00:09:49;9.20;95.20
3850;DHT22;1940;51.052;13.678;2024-02-16T00:12:14;9.20;95.20
3850;DHT22;1940;51.052;13.678;2024-02-16T00:14:40;9.20;95.20
3850;DHT22;1940;51.052;13.678;2024-02-16T00:17:06;9.20;95.20
3850;DHT22;1940;51.052;13.678;2024-02-16T00:19:32;9.20;95.20
3850;DHT22;1940;51.052;13.678;2024-02-16T00:21:57;9.20;95.20
3850;DHT22;1940;51.052;13.678;2024-02-16T00:24:23;9.20;95.20
3850;DHT22;1940;51.052;13.678;2024-02-16T00:26:49;9.20;95.20
3850;DHT22;1940;51.052;13.678;2024-02-16T00:29:14;9.20;95.20
3850;DHT22;1940;51.052;13.678;2024-02-16T00:31:40;9.20;95.20
3850;DHT22;1940;51.052;13.678;2024-02-16T00:34:06;9.10;95.20
3850;DHT22;1940;51.052;13.678;2024-02-16T00:36:31;9.20;95.20
3850;DHT22;1940;51.052;13.678;2024-02-16T00:38:59;9.20;95.20
3850;DHT22;1940;51.052;13.678;2024-02-16T00:41:25;9.10;95.20
3850;DHT22;1940;51.052;13.678;2024-02-16T00:43:50;9.10;95.20
3850;DHT22;1940;51.052;13.678;2024-02-16T00:46:17;9.10;95.20
3850;DHT22;1940;51.052;13.678;2024-02-16T00:48:43;9.10;95.20
3850;DHT22;1940;51.052;13.678;2024-02-16T00:51:08;9.10;95.20
3850;DHT22;1940;51.052;13.678;2024-02-16T00:53:34;9.10;95.20
3850;DHT22;1940;51.052;13.678;2024-02-16T00:55:59;9.10;95.20
3850;DHT22;1940;51.052;13.678;2024-02-16T00:58:25;9.10;95.20
3850;DHT22;1940;51.052;13.678;2024-02-16T01:00:50;9.10;95.20
3850;DHT22;1940;51.052;13.678;2024-02-16T01:03:16;9.10;95.20
3850;DHT22;1940;51.052;13.678;2024-02-16T01:05:41;9.10;95.20
3850;DHT22;1940;51.052;13.678;2024-02-16T01:08:07;9.00;95.20
3850;DHT22;1940;51.052;13.678;2024-02-16T01:10:32;9.00;95.20
3850;DHT22;1940;51.052;13.678;2024-02-16T01:12:58;9.00;95.20
3850;DHT22;1940;51.052;13.678;2024-02-16T01:15:23;8.90;95.20
3850;DHT22;1940;51.052;13.678;2024-02-16T01:17:51;9.00;95.20
3850;DHT22;1940;51.052;13.678;2024-02-16T01:20:16;9.00;95.20
3850;DHT22;1940;51.052;13.678;2024-02-16T01:22:41;9.00;95.20
3850;DHT22;1940;51.052;13.678;2024-02-16T01:25:08;9.00;95.20
3850;DHT22;1940;51.052;13.678;2024-02-16T01:27:34;8.90;95.20
3850;DHT22;1940;51.052;13.678;2024-02-16T01:30:00;9.00;95.20
3850;DHT22;1940;51.052;13.678;2024-02-16T01:32:26;9.00;95.20
3850;DHT22;1940;51.052;13.678;2024-02-16T01:34:52;9.00;95.20
3850;DHT22;1940;51.052;13.678;2024-02-16T01:37:17;9.00;95.20
3850;DHT22;1940;51.052;13.678;2024-02-16T01:39:43;9.00;95.20
3850;DHT22;1940;51.052;13.678;2024-02-16T01:42:09;9.00;95.20
3850;DHT22;1940;51.052;13.678;2024-02-16T01:44:34;9.00;95.20
3850;DHT22;1940;51.052;13.678;2024-02-16T01:47:00;9.00;95.20
3850;DHT22;1940;51.052;13.678;2024-02-16T01:49:26;9.00;95.20
3850;DHT22;1940;51.052;13.678;2024-02-16T01:51:52;9.00;95.20
3850;DHT22;1940;51.052;13.678;2024-02-16T01:54:18;9.00;95.20
3850;DHT22;1940;51.052;13.678;2024-02-16T01:56:44;9.00;95.20
3850;DHT22;1940;51.052;13.678;2024-02-16T01:59:10;9.10;95.20
3850;DHT22;1940;51.052;13.678;2024-02-16T02:01:36;9.10;95.20
3850;DHT22;1940;51.052;13.678;2024-02-16T02:04:01;9.10;95.20
3850;DHT22;1940;51.052;13.678;2024-02-16T02:06:27;9.10;95.20
3850;DHT22;1940;51.052;13.678;2024-02-16T02:08:53;9.10;95.20
3850;DHT22;1940;51.052;13.678;2024-02-16T02:11:18;9.10;95.20
3850;DHT22;1940;51.052;13.678;2024-02-16T02:13:44;9.10;95.20
3850;DHT22;1940;51.052;13.678;2024-02-16T02:16:10;9.10;95.20
3850;DHT22;1940;51.052;13.678;2024-02-16T02:18:36;9.10;95.20
3850;DHT22;1940;51.052;13.678;2024-02-16T02:21:02;9.00;95.20
3850;DHT22;1940;51.052;13.678;2024-02-16T02:23:27;9.00;95.20
3850;DHT22;1940;51.052;13.678;2024-02-16T02:25:53;9.00;95.20
3850;DHT22;1940;51.052;13.678;2024-02-16T02:28:19;9.10;95.20
3850;DHT22;1940;51.052;13.678;2024-02-16T02:30:45;9.10;95.20
3850;DHT22;1940;51.052;13.678;2024-02-16T02:33:11;9.10;95.20
3850;DHT22;1940;51.052;13.678;2024-02-16T02:35:38;9.00;95.20
3850;DHT22;1940;51.052;13.678;2024-02-16T02:38:04;9.00;95.20
3850;DHT22;1940;51.052;13.678;2024-02-16T02:40:30;8.90;95.20
3850;DHT22;1940;51.052;13.678;2024-02-16T02:42:55;8.90;95.20
3850;DHT22;1940;51.052;13.678;2024-02-16T02:45:21;8.80;95.20
3850;DHT22;1940;51.052;13.678;2024-02-16T02:47:46;8.80;95.20
3850;DHT22;1940;51.052;13.678;2024-02-16T02:50:12;8.80;95.20
3850;DHT22;1940;51.052;13.678;2024-02-16T02:52:38;8.80;95.20
3850;DHT22;1940;51.052;13.678;2024-02-16T02:55:04;8.80;95.20
3850;DHT22;1940;51.052;13.678;2024-02-16T02:57:29;8.80;95.20
3850;DHT22;1940;51.052;13.678;2024-02-16T03:00:03;8.80;95.20
3850;DHT22;1940;51.052;13.678;2024-02-16T03:02:29;8.90;95.20
3850;DHT22;1940;51.052;13.678;2024-02-16T03:04:55;8.90;95.20
3850;DHT22;1940;51.052;13.678;2024-02-16T03:07:20;8.90;95.20
3850;DHT22;1940;51.052;13.678;2024-02-16T03:09:46;9.00;95.20
3850;DHT22;1940;51.052;13.678;2024-02-16T03:12:11;9.00;95.20
3850;DHT22;1940;51.052;13.678;2024-02-16T03:14:37;9.10;95.20
3850;DHT22;1940;51.052;13.678;2024-02-16T03:17:03;9.10;95.20
3850;DHT22;1940;51.052;13.678;2024-02-16T03:19:29;9.10;95.20
3850;DHT22;1940;51.052;13.678;2024-02-16T03:21:55;9.10;95.20
3850;DHT22;1940;51.052;13.678;2024-02-16T03:24:20;9.10;95.20
3850;DHT22;1940;51.052;13.678;2024-02-16T03:26:47;9.10;95.20
3850;DHT22;1940;51.052;13.678;2024-02-16T03:29:13;9.10;95.20
3850;DHT22;1940;51.052;13.678;2024-02-16T03:31:39;9.10;95.20
3850;DHT22;1940;51.052;13.678;2024-02-16T03:34:05;9.10;95.20
3850;DHT22;1940;51.052;13.678;2024-02-16T03:36:31;9.10;95.20
3850;DHT22;1940;51.052;13.678;2024-02-16T03:38:57;9.10;95.20
3850;DHT22;1940;51.052;13.678;2024-02-16T03:41:23;9.10;95.20
3850;DHT22;1940;51.052;13.678;2024-02-16T03:43:49;9.10;95.00
3850;DHT22;1940;51.052;13.678;2024-02-16T03:46:15;9.10;95.00
3850;DHT22;1940;51.052;13.678;2024-02-16T03:48:41;9.10;95.00
3850;DHT22;1940;51.052;13.678;2024-02-16T03:51:06;9.10;95.10
3850;DHT22;1940;51.052;13.678;2024-02-16T03:53:33;9.10;95.10
3850;DHT22;1940;51.052;13.678;2024-02-16T03:55:59;9.10;95.00
3850;DHT22;1940;51.052;13.678;2024-02-16T03:58:25;9.10;95.10
3850;DHT22;1940;51.052;13.678;2024-02-16T04:00:50;9.10;95.20
3850;DHT22;1940;51.052;13.678;2024-02-16T04:03:18;9.10;95.20
3850;DHT22;1940;51.052;13.678;2024-02-16T04:05:43;9.10;95.10
3850;DHT22;1940;51.052;13.678;2024-02-16T04:08:09;9.10;95.00
3850;DHT22;1940;51.052;13.678;2024-02-16T04:10:34;9.10;95.00
3850;DHT22;1940;51.052;13.678;2024-02-16T04:13:01;9.10;95.10
3850;DHT22;1940;51.052;13.678;2024-02-16T04:15:26;9.00;95.10
3850;DHT22;1940;51.052;13.678;2024-02-16T04:17:52;9.10;95.20
3850;DHT22;1940;51.052;13.678;2024-02-16T04:20:19;9.10;95.10
3850;DHT22;1940;51.052;13.678;2024-02-16T04:22:45;9.10;95.00
3850;DHT22;1940;51.052;13.678;2024-02-16T04:25:10;9.00;95.00
3850;DHT22;1940;51.052;13.678;2024-02-16T04:27:36;9.00;95.00
3850;DHT22;1940;51.052;13.678;2024-02-16T04:30:03;9.00;95.10
3850;DHT22;1940;51.052;13.678;2024-02-16T04:32:29;9.00;94.90
3850;DHT22;1940;51.052;13.678;2024-02-16T04:34:54;9.00;94.70
3850;DHT22;1940;51.052;13.678;2024-02-16T04:37:25;9.00;94.60
3850;DHT22;1940;51.052;13.678;2024-02-16T04:39:50;9.00;94.60
3850;DHT22;1940;51.052;13.678;2024-02-16T04:42:17;8.90;94.50
3850;DHT22;1940;51.052;13.678;2024-02-16T04:44:43;8.90;94.60
3850;DHT22;1940;51.052;13.678;2024-02-16T04:47:08;9.00;94.50
3850;DHT22;1940;51.052;13.678;2024-02-16T04:49:37;8.90;94.60
3850;DHT22;1940;51.052;13.678;2024-02-16T04:52:03;9.00;94.50
3850;DHT22;1940;51.052;13.678;2024-02-16T04:54:29;8.90;94.30
3850;DHT22;1940;51.052;13.678;2024-02-16T04:56:54;8.90;94.40
3850;DHT22;1940;51.052;13.678;2024-02-16T04:59:20;8.90;94.30
3850;DHT22;1940;51.052;13.678;2024-02-16T05:01:46;8.90;94.40
3850;DHT22;1940;51.052;13.678;2024-02-16T05:04:12;8.90;94.30
3850;DHT22;1940;51.052;13.678;2024-02-16T05:06:43;8.90;94.00
3850;DHT22;1940;51.052;13.678;2024-02-16T05:09:10;8.90;94.10
3850;DHT22;1940;51.052;13.678;2024-02-16T05:11:36;8.80;94.10
3850;DHT22;1940;51.052;13.678;2024-02-16T05:14:01;8.80;94.10
3850;DHT22;1940;51.052;13.678;2024-02-16T05:16:27;8.80;94.10
3850;DHT22;1940;51.052;13.678;2024-02-16T05:18:53;8.80;93.80
3850;DHT22;1940;51.052;13.678;2024-02-16T05:21:21;8.70;94.00
3850;DHT22;1940;51.052;13.678;2024-02-16T05:23:47;8.70;94.10
3850;DHT22;1940;51.052;13.678;2024-02-16T05:26:13;8.70;94.00
3850;DHT22;1940;51.052;13.678;2024-02-16T05:28:38;8.70;94.10
3850;DHT22;1940;51.052;13.678;2024-02-16T05:31:14;8.80;94.00
3850;DHT22;1940;51.052;13.678;2024-02-16T05:33:41;8.70;94.10
3850;DHT22;1940;51.052;13.678;2024-02-16T05:36:07;8.80;94.00
3850;DHT22;1940;51.052;13.678;2024-02-16T05:38:34;8.80;93.90
3850;DHT22;1940;51.052;13.678;2024-02-16T05:41:09;8.70;94.10
3850;DHT22;1940;51.052;13.678;2024-02-16T05:43:34;8.70;94.10
3850;DHT22;1940;51.052;13.678;2024-02-16T05:46:00;8.70;94.20
3850;DHT22;1940;51.052;13.678;2024-02-16T05:48:26;8.70;94.20
3850;DHT22;1940;51.052;13.678;2024-02-16T05:51:00;8.70;94.20
3850;DHT22;1940;51.052;13.678;2024-02-16T05:53:26;8.70;94.50
3850;DHT22;1940;51.052;13.678;2024-02-16T05:55:53;8.70;94.20
3850;DHT22;1940;51.052;13.678;2024-02-16T05:58:18;8.70;94.20
3850;DHT22;1940;51.052;13.678;2024-02-16T06:00:44;8.70;94.40
3850;DHT22;1940;51.052;13.678;2024-02-16T06:03:09;8.80;94.10
3850;DHT22;1940;51.052;13.678;2024-02-16T06:05:34;8.80;94.10
3850;DHT22;1940;51.052;13.678;2024-02-16T06:08:00;8.80;94.00
3850;DHT22;1940;51.052;13.678;2024-02-16T06:10:26;8.80;93.90
3850;DHT22;1940;51.052;13.678;2024-02-16T06:12:51;8.80;93.80
3850;DHT22;1940;51.052;13.678;2024-02-16T06:15:17;8.80;93.70
3850;DHT22;1940;51.052;13.678;2024-02-16T06:17:43;8.80;93.80
3850;DHT22;1940;51.052;13.678;2024-02-16T06:20:08;8.80;93.80
3850;DHT22;1940;51.052;13.678;2024-02-16T06:22:38;8.80;93.70
3850;DHT22;1940;51.052;13.678;2024-02-16T06:25:04;8.80;93.60
3850;DHT22;1940;51.052;13.678;2024-02-16T06:27:30;8.80;93.50
3850;DHT22;1940;51.052;13.678;2024-02-16T06:29:56;8.80;93.40
3850;DHT22;1940;51.052;13.678;2024-02-16T06:32:21;8.80;93.30
3850;DHT22;1940;51.052;13.678;2024-02-16T06:34:47;8.90;93.30
3850;DHT22;1940;51.052;13.678;2024-02-16T06:37:12;8.90;93.00
3850;DHT22;1940;51.052;13.678;2024-02-16T06:39:38;8.90;92.80
3850;DHT22;1940;51.052;13.678;2024-02-16T06:42:04;8.90;92.70
3850;DHT22;1940;51.052;13.678;2024-02-16T06:44:29;8.90;92.70
3850;DHT22;1940;51.052;13.678;2024-02-16T06:46:55;8.90;92.40
3850;DHT22;1940;51.052;13.678;2024-02-16T06:49:20;8.90;92.50
3850;DHT22;1940;51.052;13.678;2024-02-16T06:51:46;9.00;92.20
3850;DHT22;1940;51.052;13.678;2024-02-16T06:54:11;9.00;92.10
3850;DHT22;1940;51.052;13.678;2024-02-16T06:56:37;8.90;92.10
3850;DHT22;1940;51.052;13.678;2024-02-16T06:59:03;9.00;91.90
3850;DHT22;1940;51.052;13.678;2024-02-16T07:01:28;9.00;91.90
3850;DHT22;1940;51.052;13.678;2024-02-16T07:03:54;9.00;91.70
3850;DHT22;1940;51.052;13.678;2024-02-16T07:06:20;9.00;91.80
3850;DHT22;1940;51.052;13.678;2024-02-16T07:08:45;9.00;91.80
3850;DHT22;1940;51.052;13.678;2024-02-16T07:11:11;9.10;91.50
3850;DHT22;1940;51.052;13.678;2024-02-16T07:13:40;9.20;91.30
3850;DHT22;1940;51.052;13.678;2024-02-16T07:16:07;9.30;91.00
3850;DHT22;1940;51.052;13.678;2024-02-16T07:18:33;9.40;90.70
3850;DHT22;1940;51.052;13.678;2024-02-16T07:20:59;9.40;90.10
3850;DHT22;1940;51.052;13.678;2024-02-16T07:23:25;9.40;90.20
3850;DHT22;1940;51.052;13.678;2024-02-16T07:25:50;9.50;90.00
3850;DHT22;1940;51.052;13.678;2024-02-16T07:28:16;9.60;89.50
3850;DHT22;1940;51.052;13.678;2024-02-16T07:30:41;9.70;89.50
3850;DHT22;1940;51.052;13.678;2024-02-16T07:33:07;9.80;89.00
3850;DHT22;1940;51.052;13.678;2024-02-16T07:35:34;10.00;88.70
3850;DHT22;1940;51.052;13.678;2024-02-16T07:38:01;10.00;87.90
3850;DHT22;1940;51.052;13.678;2024-02-16T07:40:27;10.10;87.50
3850;DHT22;1940;51.052;13.678;2024-02-16T07:42:53;10.20;87.20
3850;DHT22;1940;51.052;13.678;2024-02-16T07:45:19;10.10;87.00
3850;DHT22;1940;51.052;13.678;2024-02-16T07:47:45;10.10;87.20
3850;DHT22;1940;51.052;13.678;2024-02-16T07:50:11;10.20;87.10
3850;DHT22;1940;51.052;13.678;2024-02-16T07:52:38;10.30;86.60
3850;DHT22;1940;51.052;13.678;2024-02-16T07:55:04;10.50;86.20
3850;DHT22;1940;51.052;13.678;2024-02-16T07:57:30;10.60;86.00
3850;DHT22;1940;51.052;13.678;2024-02-16T07:59:56;10.80;85.20
3850;DHT22;1940;51.052;13.678;2024-02-16T08:02:21;11.00;84.60
3850;DHT22;1940;51.052;13.678;2024-02-16T08:04:48;11.20;84.20
3850;DHT22;1940;51.052;13.678;2024-02-16T08:07:14;11.30;83.80
3850;DHT22;1940;51.052;13.678;2024-02-16T08:09:39;11.60;82.80
3850;DHT22;1940;51.052;13.678;2024-02-16T08:12:05;11.70;82.00
3850;DHT22;1940;51.052;13.678;2024-02-16T08:14:33;11.70;81.70
3850;DHT22;1940;51.052;13.678;2024-02-16T08:16:59;11.60;81.60
3850;DHT22;1940;51.052;13.678;2024-02-16T08:19:32;11.60;81.70
3850;DHT22;1940;51.052;13.678;2024-02-16T08:21:59;11.50;81.90
3850;DHT22;1940;51.052;13.678;2024-02-16T08:24:26;11.30;82.20
3850;DHT22;1940;51.052;13.678;2024-02-16T08:26:51;11.30;82.40
3850;DHT22;1940;51.052;13.678;2024-02-16T08:29:17;11.40;82.40
3850;DHT22;1940;51.052;13.678;2024-02-16T08:31:42;11.60;82.40
3850;DHT22;1940;51.052;13.678;2024-02-16T08:34:09;11.70;81.80
3850;DHT22;1940;51.052;13.678;2024-02-16T08:36:36;11.60;81.30
3850;DHT22;1940;51.052;13.678;2024-02-16T08:39:01;11.50;81.70
3850;DHT22;1940;51.052;13.678;2024-02-16T08:41:27;11.50;81.90
3850;DHT22;1940;51.052;13.678;2024-02-16T08:43:52;11.50;81.70
3850;DHT22;1940;51.052;13.678;2024-02-16T08:46:18;11.60;81.90
3850;DHT22;1940;51.052;13.678;2024-02-16T08:48:46;11.80;81.20
3850;DHT22;1940;51.052;13.678;2024-02-16T08:51:12;12.00;81.00
3850;DHT22;1940;51.052;13.678;2024-02-16T08:53:39;12.60;79.60
3850;DHT22;1940;51.052;13.678;2024-02-16T08:56:09;13.00;77.90
3850;DHT22;1940;51.052;13.678;2024-02-16T08:58:36;13.50;76.40
3850;DHT22;1940;51.052;13.678;2024-02-16T09:01:02;13.70;75.50
3850;DHT22;1940;51.052;13.678;2024-02-16T09:03:28;14.10;75.10
3850;DHT22;1940;51.052;13.678;2024-02-16T09:05:53;15.30;71.70
3850;DHT22;1940;51.052;13.678;2024-02-16T09:08:19;16.10;69.70
3850;DHT22;1940;51.052;13.678;2024-02-16T09:10:44;17.00;67.60
3850;DHT22;1940;51.052;13.678;2024-02-16T09:13:10;17.90;64.70
3850;DHT22;1940;51.052;13.678;2024-02-16T09:15:36;17.90;64.00
3850;DHT22;1940;51.052;13.678;2024-02-16T09:18:02;17.20;64.80
3850;DHT22;1940;51.052;13.678;2024-02-16T09:20:28;16.40;66.60
3850;DHT22;1940;51.052;13.678;2024-02-16T09:22:54;15.60;68.30
3850;DHT22;1940;51.052;13.678;2024-02-16T09:25:19;15.10;69.90
3850;DHT22;1940;51.052;13.678;2024-02-16T09:27:45;14.80;70.80
3850;DHT22;1940;51.052;13.678;2024-02-16T09:30:12;14.40;71.90
3850;DHT22;1940;51.052;13.678;2024-02-16T09:32:41;14.10;72.70
3850;DHT22;1940;51.052;13.678;2024-02-16T09:35:08;13.70;73.70
3850;DHT22;1940;51.052;13.678;2024-02-16T09:37:34;13.50;74.50
3850;DHT22;1940;51.052;13.678;2024-02-16T09:39:59;13.40;74.80
3850;DHT22;1940;51.052;13.678;2024-02-16T09:42:25;13.30;75.30
3850;DHT22;1940;51.052;13.678;2024-02-16T09:44:54;13.30;75.50
3850;DHT22;1940;51.052;13.678;2024-02-16T09:47:21;13.20;75.80
3850;DHT22;1940;51.052;13.678;2024-02-16T09:49:48;13.30;75.60
3850;DHT22;1940;51.052;13.678;2024-02-16T09:52:13;13.40;75.60
3850;DHT22;1940;51.052;13.678;2024-02-16T09:54:39;13.80;74.70
3850;DHT22;1940;51.052;13.678;2024-02-16T09:57:05;14.10;73.30
3850;DHT22;1940;51.052;13.678;2024-02-16T09:59:30;14.20;72.90
3850;DHT22;1940;51.052;13.678;2024-02-16T10:02:02;14.10;72.70
3850;DHT22;1940;51.052;13.678;2024-02-16T10:04:27;13.90;73.10
3850;DHT22;1940;51.052;13.678;2024-02-16T10:06:53;13.60;74.00
3850;DHT22;1940;51.052;13.678;2024-02-16T10:09:26;13.40;74.40
3850;DHT22;1940;51.052;13.678;2024-02-16T10:11:52;13.30;75.30
3850;DHT22;1940;51.052;13.678;2024-02-16T10:14:17;13.10;75.40
3850;DHT22;1940;51.052;13.678;2024-02-16T10:16:45;13.00;75.70
3850;DHT22;1940;51.052;13.678;2024-02-16T10:19:12;12.90;76.20
3850;DHT22;1940;51.052;13.678;2024-02-16T10:21:37;12.80;76.20
3850;DHT22;1940;51.052;13.678;2024-02-16T10:24:08;12.80;76.70
3850;DHT22;1940;51.052;13.678;2024-02-16T10:26:35;12.90;76.40
3850;DHT22;1940;51.052;13.678;2024-02-16T10:29:10;12.80;76.40
3850;DHT22;1940;51.052;13.678;2024-02-16T10:31:40;12.80;76.40
3850;DHT22;1940;51.052;13.678;2024-02-16T10:34:06;12.80;76.50
3850;DHT22;1940;51.052;13.678;2024-02-16T10:36:33;12.90;76.30
3850;DHT22;1940;51.052;13.678;2024-02-16T10:39:00;12.90;76.50
3850;DHT22;1940;51.052;13.678;2024-02-16T10:41:27;13.10;76.10
3850;DHT22;1940;51.052;13.678;2024-02-16T10:43:55;13.20;75.60
3850;DHT22;1940;51.052;13.678;2024-02-16T10:46:22;13.30;75.20
3850;DHT22;1940;51.052;13.678;2024-02-16T10:48:48;13.40;74.70
3850;DHT22;1940;51.052;13.678;2024-02-16T10:51:15;13.50;74.20
3850;DHT22;1940;51.052;13.678;2024-02-16T10:53:41;13.60;74.20
3850;DHT22;1940;51.052;13.678;2024-02-16T10:56:07;14.10;73.30
3850;DHT22;1940;51.052;13.678;2024-02-16T10:58:33;14.40;72.40
3850;DHT22;1940;51.052;13.678;2024-02-16T11:01:08;14.70;71.30
3850;DHT22;1940;51.052;13.678;2024-02-16T11:03:38;14.70;71.00
3850;DHT22;1940;51.052;13.678;2024-02-16T11:06:15;14.70;70.90
3850;DHT22;1940;51.052;13.678;2024-02-16T11:08:42;14.80;70.80
3850;DHT22;1940;51.052;13.678;2024-02-16T11:11:07;15.00;70.10
3850;DHT22;1940;51.052;13.678;2024-02-16T11:13:37;15.10;69.90
3850;DHT22;1940;51.052;13.678;2024-02-16T11:16:09;14.90;70.00
3850;DHT22;1940;51.052;13.678;2024-02-16T11:18:43;14.60;70.80
3850;DHT22;1940;51.052;13.678;2024-02-16T11:21:15;14.40;71.10
3850;DHT22;1940;51.052;13.678;2024-02-16T11:23:41;14.20;71.60
3850;DHT22;1940;51.052;13.678;2024-02-16T11:26:12;13.90;72.40
3850;DHT22;1940;51.052;13.678;2024-02-16T11:28:40;13.70;73.10
3850;DHT22;1940;51.052;13.678;2024-02-16T11:31:06;13.70;73.40
3850;DHT22;1940;51.052;13.678;2024-02-16T11:33:34;13.70;73.20
3850;DHT22;1940;51.052;13.678;2024-02-16T11:36:04;13.50;73.60
3850;DHT22;1940;51.052;13.678;2024-02-16T11:38:31;13.40;74.00
3850;DHT22;1940;51.052;13.678;2024-02-16T11:41:01;13.40;74.20
3850;DHT22;1940;51.052;13.678;2024-02-16T11:43:26;13.30;74.50
3850;DHT22;1940;51.052;13.678;2024-02-16T11:45:52;13.30;74.60
3850;DHT22;1940;51.052;13.678;2024-02-16T11:50:47;13.30;75.00
3850;DHT22;1940;51.052;13.678;2024-02-16T11:53:17;13.40;74.50
3850;DHT22;1940;51.052;13.678;2024-02-16T11:55:48;13.40;74.30
3850;DHT22;1940;51.052;13.678;2024-02-16T11:58:16;13.60;74.00
3850;DHT22;1940;51.052;13.678;2024-02-16T12:00:43;13.60;74.00
3850;DHT22;1940;51.052;13.678;2024-02-16T12:03:08;13.70;74.00
3850;DHT22;1940;51.052;13.678;2024-02-16T12:05:34;13.70;73.50
3850;DHT22;1940;51.052;13.678;2024-02-16T12:07:59;13.90;73.50
3850;DHT22;1940;51.052;13.678;2024-02-16T12:10:25;14.10;73.00
3850;DHT22;1940;51.052;13.678;2024-02-16T12:12:52;14.30;72.10
3850;DHT22;1940;51.052;13.678;2024-02-16T12:15:18;14.60;71.00
3850;DHT22;1940;51.052;13.678;2024-02-16T12:17:45;14.80;70.50
3850;DHT22;1940;51.052;13.678;2024-02-16T12:20:11;15.30;69.60
3850;DHT22;1940;51.052;13.678;2024-02-16T12:22:38;16.00;67.60
3850;DHT22;1940;51.052;13.678;2024-02-16T12:25:04;16.40;66.50
3850;DHT22;1940;51.052;13.678;2024-02-16T12:27:30;16.70;65.70
3850;DHT22;1940;51.052;13.678;2024-02-16T12:29:55;16.60;65.10
3850;DHT22;1940;51.052;13.678;2024-02-16T12:32:21;16.40;65.80
3850;DHT22;1940;51.052;13.678;2024-02-16T12:34:46;16.00;66.40
3850;DHT22;1940;51.052;13.678;2024-02-16T12:37:12;15.70;67.30
3850;DHT22;1940;51.052;13.678;2024-02-16T12:39:38;15.40;68.30
3850;DHT22;1940;51.052;13.678;2024-02-16T12:42:04;15.30;68.00
3850;DHT22;1940;51.052;13.678;2024-02-16T12:44:29;14.90;69.20
3850;DHT22;1940;51.052;13.678;2024-02-16T12:46:56;14.90;69.70
3850;DHT22;1940;51.052;13.678;2024-02-16T12:49:21;14.80;69.60
3850;DHT22;1940;51.052;13.678;2024-02-16T12:51:50;14.70;69.90
3850;DHT22;1940;51.052;13.678;2024-02-16T12:54:16;14.50;70.40
3850;DHT22;1940;51.052;13.678;2024-02-16T12:56:45;14.60;70.60
3850;DHT22;1940;51.052;13.678;2024-02-16T12:59:11;14.80;70.50
3850;DHT22;1940;51.052;13.678;2024-02-16T13:01:36;14.80;70.50
3850;DHT22;1940;51.052;13.678;2024-02-16T13:04:02;15.00;70.30
3850;DHT22;1940;51.052;13.678;2024-02-16T13:06:28;15.20;69.90
3850;DHT22;1940;51.052;13.678;2024-02-16T13:08:53;15.30;69.40
3850;DHT22;1940;51.052;13.678;2024-02-16T13:11:19;15.40;69.10
3850;DHT22;1940;51.052;13.678;2024-02-16T13:13:45;15.60;68.60
3850;DHT22;1940;51.052;13.678;2024-02-16T13:16:10;15.70;68.20
3850;DHT22;1940;51.052;13.678;2024-02-16T13:18:36;15.70;67.90
3850;DHT22;1940;51.052;13.678;2024-02-16T13:21:01;15.60;68.00
3850;DHT22;1940;51.052;13.678;2024-02-16T13:23:27;15.70;68.20
3850;DHT22;1940;51.052;13.678;2024-02-16T13:25:54;15.70;67.90
3850;DHT22;1940;51.052;13.678;2024-02-16T13:28:20;15.50;68.10
3850;DHT22;1940;51.052;13.678;2024-02-16T13:30:45;15.40;68.30
3850;DHT22;1940;51.052;13.678;2024-02-16T13:33:11;15.20;68.70
3850;DHT22;1940;51.052;13.678;2024-02-16T13:35:36;15.00;69.20
3850;DHT22;1940;51.052;13.678;2024-02-16T13:38:02;14.70;69.70
3850;DHT22;1940;51.052;13.678;2024-02-16T13:40:28;14.60;70.30
3850;DHT22;1940;51.052;13.678;2024-02-16T13:42:53;14.60;70.40
3850;DHT22;1940;51.052;13.678;2024-02-16T13:45:24;14.50;70.70
3850;DHT22;1940;51.052;13.678;2024-02-16T13:47:51;14.60;71.00
3850;DHT22;1940;51.052;13.678;2024-02-16T13:50:16;14.60;70.50
3850;DHT22;1940;51.052;13.678;2024-02-16T13:52:42;14.50;70.90
3850;DHT22;1940;51.052;13.678;2024-02-16T13:55:07;14.40;70.90
3850;DHT22;1940;51.052;13.678;2024-02-16T13:57:33;14.30;71.20
3850;DHT22;1940;51.052;13.678;2024-02-16T13:59:59;14.30;71.30
3850;DHT22;1940;51.052;13.678;2024-02-16T14:02:24;14.20;71.30
3850;DHT22;1940;51.052;13.678;2024-02-16T14:04:50;14.00;71.80
3850;DHT22;1940;51.052;13.678;2024-02-16T14:07:16;13.90;72.00
3850;DHT22;1940;51.052;13.678;2024-02-16T14:09:41;13.90;72.50
3850;DHT22;1940;51.052;13.678;2024-02-16T14:12:07;14.00;72.20
3850;DHT22;1940;51.052;13.678;2024-02-16T14:14:33;14.00;72.30
3850;DHT22;1940;51.052;13.678;2024-02-16T14:16:58;13.90;72.00
3850;DHT22;1940;51.052;13.678;2024-02-16T14:19:24;13.80;72.40
3850;DHT22;1940;51.052;13.678;2024-02-16T14:21:49;13.80;72.70
3850;DHT22;1940;51.052;13.678;2024-02-16T14:24:15;13.70;73.00
3850;DHT22;1940;51.052;13.678;2024-02-16T14:26:42;13.70;73.20
3850;DHT22;1940;51.052;13.678;2024-02-16T14:29:08;13.60;73.40
3850;DHT22;1940;51.052;13.678;2024-02-16T14:31:33;13.60;73.70
3850;DHT22;1940;51.052;13.678;2024-02-16T14:34:00;13.50;73.80
3850;DHT22;1940;51.052;13.678;2024-02-16T14:36:25;13.40;74.20
3850;DHT22;1940;51.052;13.678;2024-02-16T14:38:51;13.40;74.50
3850;DHT22;1940;51.052;13.678;2024-02-16T14:41:16;13.40;74.70
3850;DHT22;1940;51.052;13.678;2024-02-16T14:43:42;13.40;74.90
3850;DHT22;1940;51.052;13.678;2024-02-16T14:46:08;13.40;74.90
3850;DHT22;1940;51.052;13.678;2024-02-16T14:48:35;13.40;74.90
3850;DHT22;1940;51.052;13.678;2024-02-16T14:51:01;13.30;75.40
3850;DHT22;1940;51.052;13.678;2024-02-16T14:53:26;13.30;75.50
3850;DHT22;1940;51.052;13.678;2024-02-16T14:55:52;13.30;75.60
3850;DHT22;1940;51.052;13.678;2024-02-16T14:58:18;13.20;75.70
3850;DHT22;1940;51.052;13.678;2024-02-16T15:00:43;13.20;75.80
3850;DHT22;1940;51.052;13.678;2024-02-16T15:03:12;13.10;76.20
3850;DHT22;1940;51.052;13.678;2024-02-16T15:05:39;13.10;76.10
3850;DHT22;1940;51.052;13.678;2024-02-16T15:08:05;13.00;76.10
3850;DHT22;1940;51.052;13.678;2024-02-16T15:10:30;13.00;76.20
3850;DHT22;1940;51.052;13.678;2024-02-16T15:12:57;12.90;76.50
3850;DHT22;1940;51.052;13.678;2024-02-16T15:15:22;12.80;77.00
3850;DHT22;1940;51.052;13.678;2024-02-16T15:17:48;12.80;77.10
3850;DHT22;1940;51.052;13.678;2024-02-16T15:20:14;12.70;77.30
3850;DHT22;1940;51.052;13.678;2024-02-16T15:22:39;12.70;77.30
3850;DHT22;1940;51.052;13.678;2024-02-16T15:25:06;12.60;77.40
3850;DHT22;1940;51.052;13.678;2024-02-16T15:27:32;12.50;78.00
3850;DHT22;1940;51.052;13.678;2024-02-16T15:29:57;12.40;78.30
3850;DHT22;1940;51.052;13.678;2024-02-16T15:32:23;12.30;78.60
3850;DHT22;1940;51.052;13.678;2024-02-16T15:34:49;12.40;78.50
3850;DHT22;1940;51.052;13.678;2024-02-16T15:37:21;12.30;78.60
3850;DHT22;1940;51.052;13.678;2024-02-16T15:39:47;12.30;78.70
3850;DHT22;1940;51.052;13.678;2024-02-16T15:42:18;12.30;79.00
3850;DHT22;1940;51.052;13.678;2024-02-16T15:44:44;12.30;79.00
3850;DHT22;1940;51.052;13.678;2024-02-16T15:47:09;12.20;79.00